Time;durP1;ratioP1;P1;durP2;ratioP2;P2;SDS_P1;SDS_P2;PMS_P1;PMS_P2;Temp;Humidity;BMP_temperature;BMP_pressure;BME280_temperature;BME280_humidity;BME280_pressure;Samples;Min_cycle;Max_cycle;Signal;HPM_P1;HPM_P2
2023/07/06 00:02:24;;;;;;;10.68;6.22;;;;;;;27.25;47.97;100906.47;4937725;28;20067;-81
2023/07/06 00:04:52;;;;;;;;;;;;;;;27.34;48.60;100925.19;4936365;28;20218;-83
2023/07/06 00:07:22;;;;;;;15.18;6.95;;;;;;;27.29;48.29;100928.63;4927730;28;20026;-82
2023/07/06 00:09:50;;;;;;;13.05;7.20;;;;;;;27.26;48.32;100931.84;4919133;29;20055;-82
2023/07/06 00:12:24;;;;;;;13.75;6.78;;;;;;;27.24;48.54;100936.69;4932076;29;20497;-83
2023/07/06 00:14:54;;;;;;;11.80;6.78;;;;;;;27.17;48.54;100931.34;4906936;29;20051;-83
2023/07/06 00:17:21;;;;;;;14.48;7.47;;;;;;;27.17;48.72;100925.06;4918973;29;20373;-83
2023/07/06 00:19:55;;;;;;;10.47;6.43;;;;;;;27.22;48.35;100917.03;4910101;29;20078;-84
2023/07/06 00:22:24;;;;;;;13.43;7.03;;;;;;;26.42;48.77;100826.63;4929291;29;20397;-82
2023/07/06 00:24:51;;;;;;;14.93;7.05;;;;;;;26.91;49.11;100907.31;4906979;29;20501;-82
2023/07/06 00:27:18;;;;;;;14.40;7.82;;;;;;;26.88;48.84;100899.63;4921662;29;20047;-82
2023/07/06 00:30:40;;;;;;;11.20;6.65;;;;;;;26.79;48.55;100880.06;4929288;28;20055;-81
2023/07/06 00:32:34;;;;;;;15.55;7.20;;;;;;;27.03;49.04;100938.91;4947348;28;20464;-80
2023/07/06 00:35:01;;;;;;;13.43;7.05;;;;;;;26.82;49.23;100923.16;4932488;28;20429;-81
2023/07/06 00:37:29;;;;;;;14.10;6.45;;;;;;;26.99;49.28;100948.66;4902320;29;20503;-82
2023/07/06 00:39:56;;;;;;;16.23;7.18;;;;;;;27.06;49.10;100946.63;4902296;29;20047;-81
2023/07/06 00:42:26;;;;;;;16.52;7.38;;;;;;;26.83;49.44;100930.28;4902592;29;20055;-81
2023/07/06 00:44:57;;;;;;;14.80;6.55;;;;;;;26.90;49.55;100947.34;4889300;29;20199;-81
2023/07/06 00:47:37;;;;;;;;;;;;;;;26.88;49.66;100957.63;4909252;29;20138;-85
2023/07/06 00:50:15;;;;;;;15.70;6.65;;;;;;;26.82;49.70;100955.84;4915852;28;20496;-84
2023/07/06 00:52:49;;;;;;;12.52;6.75;;;;;;;26.71;50.18;100937.63;4921642;29;20059;-83
2023/07/06 00:55:21;;;;;;;12.40;6.97;;;;;;;26.52;49.54;100905.00;4929849;28;20053;-83
2023/07/06 00:57:54;;;;;;;11.77;6.10;;;;;;;26.72;49.70;100940.09;4913204;29;20106;-83
2023/07/06 01:00:21;;;;;;;18.55;8.10;;;;;;;26.80;49.85;100958.81;4923993;28;20414;-83
2023/07/06 01:02:57;;;;;;;12.35;6.70;;;;;;;26.70;49.61;100935.94;4950319;28;20065;-82
2023/07/06 01:05:25;;;;;;;14.48;6.70;;;;;;;26.63;49.50;100936.91;4942741;28;20054;-82
2023/07/06 01:07:55;;;;;;;16.23;7.03;;;;;;;26.84;49.47;100961.88;4934573;28;20113;-83
2023/07/06 01:10:25;;;;;;;12.70;7.18;;;;;;;26.70;49.91;100969.47;4918433;28;20560;-82
2023/07/06 01:12:52;;;;;;;13.30;7.15;;;;;;;26.41;50.39;100933.03;4902109;28;20073;-84
2023/07/06 01:15:19;;;;;;;23.52;7.30;;;;;;;26.73;49.71;100985.34;4947978;28;20222;-80
2023/07/06 01:18:06;;;;;;;14.02;6.85;;;;;;;26.63;50.02;100985.91;4946933;28;20050;-82
2023/07/06 01:20:47;;;;;;;12.98;7.25;;;;;;;26.44;50.09;100960.63;4942455;28;20503;-81
2023/07/06 01:23:41;;;;;;;13.77;6.95;;;;;;;26.63;50.48;100976.91;4945185;28;20069;-82
2023/07/06 01:26:43;;;;;;;13.43;6.82;;;;;;;26.64;51.12;100975.84;4942375;28;20055;-82
2023/07/06 01:29:23;;;;;;;13.88;7.38;;;;;;;26.47;50.96;100964.75;4928558;28;20061;-83
2023/07/06 01:31:58;;;;;;;14.90;8.13;;;;;;;26.40;51.52;100969.47;4948257;28;20368;-80
2023/07/06 01:34:53;;;;;;;14.13;6.90;;;;;;;26.54;52.03;100972.88;4952011;28;20085;-82
2023/07/06 01:37:46;;;;;;;18.27;7.93;;;;;;;26.23;52.85;100974.75;4957500;28;20061;-82
2023/07/06 01:40:12;;;;;;;13.23;6.72;;;;;;;26.11;52.54;100971.97;4943823;28;20255;-82
2023/07/06 01:42:51;;;;;;;17.98;7.47;;;;;;;26.08;52.86;100968.91;4951617;28;20081;-83
2023/07/06 01:45:23;;;;;;;15.30;6.78;;;;;;;24.93;52.98;100807.41;4944557;28;20046;-83
2023/07/06 01:48:02;;;;;;;13.77;7.28;;;;;;;25.88;52.86;100940.09;4924707;28;20074;-82
2023/07/06 01:51:19;;;;;;;10.73;6.65;;;;;;;25.69;53.44;100927.53;4948618;28;20046;-82
2023/07/06 01:53:59;;;;;;;14.65;6.45;;;;;;;25.91;53.76;100982.31;4868201;28;20060;-81
2023/07/06 01:56:49;;;;;;;13.65;7.20;;;;;;;25.79;53.91;100957.72;4946323;28;20112;-82
2023/07/06 01:59:20;;;;;;;15.75;7.93;;;;;;;25.57;53.77;100928.28;4945607;28;20062;-82
2023/07/06 02:02:00;;;;;;;14.10;7.65;;;;;;;25.72;53.88;100952.38;4962486;28;20597;-81
2023/07/06 02:04:51;;;;;;;13.75;7.90;;;;;;;25.61;54.04;100938.72;4950442;28;20097;-83
2023/07/06 02:07:20;;;;;;;14.07;7.60;;;;;;;25.77;54.14;100982.41;4931622;28;20061;-83
2023/07/06 02:09:51;;;;;;;13.05;7.18;;;;;;;25.84;54.03;100981.53;4937717;28;20052;-82
2023/07/06 02:12:18;;;;;;;13.68;6.45;;;;;;;25.82;53.57;100978.19;4962644;28;20062;-82
2023/07/06 02:14:48;;;;;;;19.52;8.07;;;;;;;25.71;53.80;100971.66;4944071;28;20054;-82
2023/07/06 02:17:17;;;;;;;16.90;7.60;;;;;;;25.51;53.51;100956.41;4960211;28;20295;-83
2023/07/06 02:19:46;;;;;;;16.90;7.20;;;;;;;25.81;53.69;100999.13;4925446;28;20109;-83
2023/07/06 02:22:12;;;;;;;19.90;7.40;;;;;;;25.63;53.71;100970.03;4942860;28;20105;-82
2023/07/06 02:24:43;;;;;;;16.70;8.88;;;;;;;25.77;53.57;100993.28;4950424;28;20050;-83
2023/07/06 02:27:11;;;;;;;10.38;7.07;;;;;;;25.95;52.79;100969.91;4939026;28;20054;-81
2023/07/06 02:29:45;;;;;;;16.25;7.82;;;;;;;25.85;53.21;100961.41;4931367;28;20471;-82
2023/07/06 02:32:16;;;;;;;12.70;7.03;;;;;;;25.86;53.51;100980.28;4935822;28;20053;-82
2023/07/06 02:34:49;;;;;;;13.10;7.07;;;;;;;25.77;52.97;100973.44;4937520;28;20464;-82
2023/07/06 02:37:28;;;;;;;13.77;7.72;;;;;;;25.83;53.22;100993.44;4892769;28;20376;-82
2023/07/06 02:40:00;;;;;;;13.93;7.88;;;;;;;25.82;53.32;100999.94;4920760;28;20467;-82
2023/07/06 02:42:40;;;;;;;13.95;7.07;;;;;;;25.86;52.91;101007.47;4927736;28;20043;-81
2023/07/06 02:45:07;;;;;;;18.15;8.25;;;;;;;25.74;52.94;100988.31;4945425;28;20042;-82
2023/07/06 02:47:41;;;;;;;16.23;8.32;;;;;;;25.80;52.83;100986.56;4938689;28;20749;-83
2023/07/06 02:50:12;;;;;;;12.93;7.00;;;;;;;25.82;52.92;101000.78;4938613;28;20517;-82
2023/07/06 02:52:42;;;;;;;13.25;7.50;;;;;;;25.73;53.37;101002.13;4941021;28;20061;-82
2023/07/06 02:55:09;;;;;;;17.33;7.82;;;;;;;25.72;53.65;101006.75;4930918;28;20061;-83
2023/07/06 02:57:39;;;;;;;13.02;7.93;;;;;;;25.33;53.37;100926.50;4950354;28;20108;-83
2023/07/06 03:00:13;;;;;;;10.98;6.63;;;;;;;25.64;54.68;100998.91;4946872;28;20423;-83
2023/07/06 03:02:41;;;;;;;12.38;7.00;;;;;;;24.82;54.53;100876.84;4936920;28;20392;-81
2023/07/06 03:05:09;;;;;;;15.50;7.03;;;;;;;25.40;54.81;100975.34;4924521;28;20053;-82
2023/07/06 03:07:39;;;;;;;12.45;7.30;;;;;;;25.24;54.54;100934.09;4936403;28;20134;-82
2023/07/06 03:10:08;;;;;;;13.40;7.25;;;;;;;25.55;54.96;100990.22;4913592;28;20047;-82
2023/07/06 03:12:38;;;;;;;19.50;8.27;;;;;;;25.63;55.13;100997.22;4940219;28;20367;-81
2023/07/06 03:15:10;;;;;;;14.95;9.02;;;;;;;25.64;55.55;100996.19;4927805;28;20444;-82
2023/07/06 03:17:41;;;;;;;17.20;8.50;;;;;;;25.54;55.96;100987.75;4923125;28;20056;-83
2023/07/06 03:20:18;;;;;;;14.38;8.35;;;;;;;25.50;56.40;100987.34;4939715;28;20042;-83
2023/07/06 03:22:54;;;;;;;20.50;8.57;;;;;;;25.33;57.14;100964.53;4925901;28;20051;-84
2023/07/06 03:25:24;;;;;;;16.83;8.43;;;;;;;25.33;57.38;100978.13;4949435;28;20054;-83
2023/07/06 03:27:51;;;;;;;11.65;8.70;;;;;;;25.42;57.70;100994.97;4956274;28;20370;-80
2023/07/06 03:30:21;;;;;;;19.92;9.15;;;;;;;25.40;57.83;100997.91;4954032;28;20137;-82
2023/07/06 03:32:48;;;;;;;14.20;8.75;;;;;;;24.61;57.82;100885.41;4946508;28;20325;-83
2023/07/06 03:35:15;;;;;;;17.88;8.73;;;;;;;25.22;58.43;100995.16;4936476;28;20142;-83
2023/07/06 03:37:45;;;;;;;13.32;8.18;;;;;;;25.19;58.99;100991.00;4927226;28;20802;-83
2023/07/06 03:40:13;;;;;;;13.40;8.25;;;;;;;24.79;59.60;100942.47;4916612;28;20416;-81
2023/07/06 03:42:48;;;;;;;15.60;9.30;;;;;;;25.15;60.17;101008.78;4932491;28;20519;-83
2023/07/06 03:45:18;;;;;;;19.67;9.43;;;;;;;25.03;59.99;100986.97;4949492;28;20459;-82
2023/07/06 03:47:49;;;;;;;17.60;8.90;;;;;;;25.18;60.39;101013.81;4942821;28;20428;-82
2023/07/06 03:50:20;;;;;;;16.85;9.73;;;;;;;24.86;60.30;100959.53;4938496;28;20069;-82
2023/07/06 03:52:48;;;;;;;14.27;8.88;;;;;;;25.25;59.75;100989.28;4942702;28;20058;-84
2023/07/06 03:55:18;;;;;;;21.05;10.63;;;;;;;24.75;59.61;100914.09;4948236;28;20050;-82
2023/07/06 03:57:45;;;;;;;17.70;10.25;;;;;;;25.12;60.21;100991.06;4946374;28;20503;-83
2023/07/06 04:00:30;;;;;;;14.90;9.90;;;;;;;25.17;60.87;101020.28;4944645;28;20516;-82
2023/07/06 04:03:00;;;;;;;18.50;10.35;;;;;;;25.14;60.75;101004.41;4939992;28;20051;-83
2023/07/06 04:05:38;;;;;;;15.90;9.70;;;;;;;25.12;61.31;101022.81;4943275;28;20133;-83
2023/07/06 04:08:09;;;;;;;13.95;9.68;;;;;;;25.04;61.55;101014.94;4949980;28;20519;-82
2023/07/06 04:10:37;;;;;;;15.65;9.13;;;;;;;24.94;62.23;101015.44;4955132;28;20045;-82
2023/07/06 04:13:04;;;;;;;17.02;9.57;;;;;;;24.84;62.30;101009.69;4941855;28;20046;-83
2023/07/06 04:15:36;;;;;;;15.30;10.38;;;;;;;25.03;62.03;101024.16;4956724;28;20134;-82
2023/07/06 04:18:06;;;;;;;17.88;9.52;;;;;;;24.91;61.75;101005.84;4945884;28;20424;-83
2023/07/06 04:20:41;;;;;;;15.93;9.25;;;;;;;25.08;61.86;101027.03;4946631;28;20043;-83
2023/07/06 04:23:09;;;;;;;19.42;9.48;;;;;;;25.01;62.44;101020.81;4928647;28;20303;-84
2023/07/06 04:25:38;;;;;;;14.60;9.18;;;;;;;24.99;62.96;101022.94;4938524;28;20166;-83
2023/07/06 04:28:10;;;;;;;14.40;8.65;;;;;;;24.65;63.03;100968.06;4953759;28;20234;-83
2023/07/06 04:30:41;;;;;;;21.17;8.80;;;;;;;25.01;62.93;101020.81;4937601;28;20546;-83
2023/07/06 04:33:16;;;;;;;18.88;8.73;;;;;;;24.93;63.09;101013.78;4936382;28;20419;-82
2023/07/06 04:35:51;;;;;;;17.48;9.07;;;;;;;24.88;62.35;100990.00;4940533;28;20050;-84
2023/07/06 04:38:22;;;;;;;15.00;9.85;;;;;;;25.22;62.04;101009.59;4946639;28;20527;-83
2023/07/06 04:40:50;;;;;;;;;;;;;;;25.09;62.92;101015.09;4943613;28;20061;-83
2023/07/06 04:43:20;;;;;;;20.10;10.35;;;;;;;24.49;62.57;100918.72;4943250;28;20354;-82
2023/07/06 04:45:47;;;;;;;24.38;10.32;;;;;;;24.96;63.13;100999.75;4940129;28;20050;-82
2023/07/06 04:48:16;;;;;;;16.70;10.40;;;;;;;24.95;63.11;100995.38;4966176;28;20051;-82
2023/07/06 04:50:46;;;;;;;17.35;9.07;;;;;;;24.93;62.88;100982.03;4925225;28;20344;-83
2023/07/06 04:53:16;;;;;;;15.25;9.25;;;;;;;24.76;62.63;100932.06;4949876;28;20046;-82
2023/07/06 04:55:43;;;;;;;15.80;9.02;;;;;;;25.00;62.58;100973.84;4948023;28;20618;-82
2023/07/06 04:58:09;;;;;;;19.20;9.15;;;;;;;25.15;62.26;100990.59;4947609;28;20487;-82
2023/07/06 05:00:39;;;;;;;14.90;9.13;;;;;;;25.13;62.49;100970.16;4934818;28;20053;-81
2023/07/06 05:03:08;;;;;;;21.35;9.52;;;;;;;25.40;61.72;101005.25;4959930;28;20050;-81
2023/07/06 05:05:42;;;;;;;12.25;8.57;;;;;;;25.46;61.89;101009.75;4944366;28;20547;-82
2023/07/06 05:08:22;;;;;;;15.55;8.25;;;;;;;25.56;60.92;101007.38;4945880;28;20068;-83
2023/07/06 05:11:05;;;;;;;21.63;8.93;;;;;;;25.57;60.29;101012.56;4929423;28;20077;-82
2023/07/06 05:13:32;;;;;;;15.95;8.52;;;;;;;25.28;59.15;100956.22;4934279;28;20050;-81
2023/07/06 05:15:59;;;;;;;15.27;8.52;;;;;;;25.63;58.44;101018.16;4942394;28;20285;-83
2023/07/06 05:18:26;;;;;;;18.40;8.55;;;;;;;25.76;56.46;101024.28;4924923;28;20050;-80
2023/07/06 05:20:57;;;;;;;19.05;8.48;;;;;;;25.74;56.18;101034.53;4928956;28;20050;-81
2023/07/06 05:23:32;;;;;;;17.40;9.05;;;;;;;25.62;55.97;101027.38;4924329;28;20493;-82
2023/07/06 05:26:07;;;;;;;23.27;9.32;;;;;;;25.50;56.08;101019.97;4938548;28;20429;-81
2023/07/06 05:28:34;;;;;;;13.82;8.85;;;;;;;25.68;55.66;101038.19;4948817;28;20113;-80
2023/07/06 05:31:03;;;;;;;12.30;8.70;;;;;;;25.61;55.64;101031.13;4949697;28;20046;-82
2023/07/06 05:33:33;;;;;;;14.88;8.68;;;;;;;25.47;55.69;101017.69;4931564;28;20078;-83
2023/07/06 05:36:00;;;;;;;16.80;9.43;;;;;;;24.65;55.29;100870.34;4938361;28;20137;-84
2023/07/06 05:38:51;;;;;;;14.18;9.00;;;;;;;25.77;55.26;101066.72;4905422;28;20333;-84
2023/07/06 05:41:35;;;;;;;14.48;8.93;;;;;;;25.62;55.06;101030.09;4881418;28;20513;-84
2023/07/06 05:44:29;;;;;;;12.75;8.30;;;;;;;25.72;55.27;101039.38;4885724;28;20328;-82
2023/07/06 05:47:10;;;;;;;17.08;8.88;;;;;;;25.34;55.08;100988.78;4901900;28;20056;-82
2023/07/06 05:49:45;;;;;;;21.25;10.20;;;;;;;25.69;55.04;101045.28;4891264;28;20524;-82
2023/07/06 05:52:12;;;;;;;18.60;9.13;;;;;;;25.44;54.75;100999.13;4926798;28;20046;-84
2023/07/06 05:55:05;;;;;;;20.98;10.57;;;;;;;25.78;55.22;101046.66;4898239;28;20195;-84
2023/07/06 05:57:38;;;;;;;16.25;9.90;;;;;;;25.72;54.90;101005.94;4910243;28;20054;-83
2023/07/06 06:00:15;;;;;;;17.30;10.00;;;;;;;25.57;53.98;100965.53;4946183;28;20457;-84
2023/07/06 06:03:01;;;;;;;23.15;10.73;;;;;;;26.08;54.56;101059.50;4890651;28;20058;-82
2023/07/06 06:05:29;;;;;;;19.23;9.25;;;;;;;26.07;57.30;101066.00;4904379;28;20074;-81
2023/07/06 06:08:01;;;;;;;15.27;8.20;;;;;;;25.97;58.40;101049.38;4931396;28;20233;-82
2023/07/06 06:10:31;;;;;;;16.45;8.73;;;;;;;25.96;58.41;101050.44;4948719;28;20420;-81
2023/07/06 06:13:00;;;;;;;14.52;9.23;;;;;;;25.99;58.33;101049.97;4955578;28;20392;-81
2023/07/06 06:15:27;;;;;;;16.60;8.50;;;;;;;25.96;58.14;101032.22;4940763;28;20085;-80
2023/07/06 06:17:54;;;;;;;17.67;9.00;;;;;;;26.08;58.03;101048.63;4939100;28;20058;-82
2023/07/06 06:20:21;;;;;;;16.75;9.57;;;;;;;26.20;57.93;101063.13;4948125;28;20058;-80
2023/07/06 06:22:51;;;;;;;15.13;9.20;;;;;;;25.91;58.13;101014.94;4947745;28;20129;-82
2023/07/06 06:25:19;;;;;;;16.00;9.30;;;;;;;26.25;57.83;101069.75;4935719;28;20051;-82
2023/07/06 06:27:46;;;;;;;16.77;8.90;;;;;;;26.20;58.43;101065.84;4924640;28;20090;-83
2023/07/06 06:30:15;;;;;;;19.65;9.43;;;;;;;26.39;57.82;101082.16;4919529;28;20057;-82
2023/07/06 06:32:42;;;;;;;23.88;10.25;;;;;;;25.91;58.03;100998.63;4919619;28;20128;-83
2023/07/06 06:35:23;;;;;;;20.67;9.93;;;;;;;26.32;57.55;101046.84;4929111;28;20387;-81
2023/07/06 06:37:50;;;;;;;;;;;;;;;26.40;57.42;101072.91;4903746;29;20054;-83
2023/07/06 06:40:19;;;;;;;16.48;9.00;;;;;;;26.28;57.62;101052.97;4912689;29;19926;-81
2023/07/06 06:42:47;;;;;;;20.23;10.05;;;;;;;26.25;57.61;101053.44;4910897;29;20413;-82
2023/07/06 06:45:18;;;;;;;21.00;9.98;;;;;;;25.97;57.66;101020.31;4912204;28;20063;-83
2023/07/06 06:47:45;;;;;;;18.35;9.38;;;;;;;26.04;57.68;101030.25;4904583;28;20051;-83
2023/07/06 06:50:16;;;;;;;18.58;10.02;;;;;;;26.23;58.05;101040.88;4909913;29;20055;-82
2023/07/06 06:52:44;;;;;;;20.52;9.15;;;;;;;26.38;58.32;101064.13;4914997;28;20303;-82
2023/07/06 06:55:10;;;;;;;23.48;10.15;;;;;;;26.29;58.21;101041.00;4921146;28;20481;-82
2023/07/06 06:57:39;;;;;;;13.95;9.15;;;;;;;26.64;57.62;101058.34;4938788;28;20109;-82
2023/07/06 07:00:10;;;;;;;17.42;9.77;;;;;;;26.67;56.91;101054.34;4933414;28;20407;-82
2023/07/06 07:02:40;;;;;;;19.30;10.20;;;;;;;26.39;56.80;101003.22;4942127;28;20054;-81
2023/07/06 07:05:11;;;;;;;21.52;10.80;;;;;;;26.79;57.30;101071.53;4954776;28;20042;-80
2023/07/06 07:07:47;;;;;;;17.95;10.05;;;;;;;26.85;56.38;101059.72;4928058;28;20606;-81
2023/07/06 07:10:14;;;;;;;16.95;9.88;;;;;;;26.66;56.16;101040.97;4926174;28;20050;-82
2023/07/06 07:12:44;;;;;;;22.77;9.75;;;;;;;26.81;56.26;101063.13;4928253;28;20054;-83
2023/07/06 07:15:17;;;;;;;19.98;10.65;;;;;;;26.84;56.07;101068.94;4930525;28;20046;-82
2023/07/06 07:17:45;;;;;;;20.77;10.90;;;;;;;26.84;56.92;101070.84;4941365;28;20054;-81
2023/07/06 07:20:18;;;;;;;16.20;9.45;;;;;;;26.98;56.23;101064.13;4934263;28;20333;-82
2023/07/06 07:22:48;;;;;;;22.60;10.20;;;;;;;27.14;55.95;101062.63;4938190;28;20240;-83
2023/07/06 07:25:17;;;;;;;14.05;9.05;;;;;;;27.18;55.63;101062.97;4936863;28;20492;-83
2023/07/06 07:27:46;;;;;;;17.20;9.40;;;;;;;27.13;54.24;101043.75;4957024;28;20094;-82
2023/07/06 07:30:16;;;;;;;19.15;9.25;;;;;;;27.30;53.72;101044.75;4953321;28;20658;-81
2023/07/06 07:32:51;;;;;;;20.45;9.45;;;;;;;27.28;54.09;101041.44;4897936;28;20050;-82
2023/07/06 07:35:26;;;;;;;18.15;9.60;;;;;;;27.37;54.56;101045.47;4901519;28;20122;-81
2023/07/06 07:37:53;;;;;;;20.92;10.25;;;;;;;27.31;54.44;101026.50;4912931;29;20288;-83
2023/07/06 07:40:24;;;;;;;24.73;11.80;;;;;;;27.51;54.34;101039.78;4914316;29;20420;-82
2023/07/06 07:42:54;;;;;;;16.73;9.35;;;;;;;27.56;53.76;101042.63;4892448;29;20311;-83
2023/07/06 07:45:21;;;;;;;17.60;9.80;;;;;;;27.40;52.73;101006.81;4875019;29;20321;-82
2023/07/06 07:47:48;;;;;;;17.48;10.43;;;;;;;27.81;53.16;101058.69;4906778;29;20051;-82
2023/07/06 07:50:15;;;;;;;27.55;10.23;;;;;;;27.62;52.57;101026.13;4903097;29;20502;-83
2023/07/06 07:52:41;;;;;;;22.85;10.20;;;;;;;27.73;52.51;101048.16;4911035;29;20059;-83
2023/07/06 07:55:11;;;;;;;16.42;10.30;;;;;;;27.73;53.07;101045.44;4922268;28;20488;-82
2023/07/06 07:57:38;;;;;;;21.65;10.20;;;;;;;27.88;53.03;101065.72;4949997;28;20400;-82
2023/07/06 08:00:10;;;;;;;18.42;9.80;;;;;;;27.82;52.67;101039.41;4943613;28;20512;-84
2023/07/06 08:02:40;;;;;;;22.55;10.05;;;;;;;28.08;51.81;101072.66;4949828;28;20057;-82
2023/07/06 08:05:09;;;;;;;16.23;9.70;;;;;;;27.89;51.81;101055.63;4938818;28;20050;-82
2023/07/06 08:07:36;;;;;;;18.98;9.63;;;;;;;28.00;51.85;101070.31;4924203;28;20063;-83
2023/07/06 08:10:07;;;;;;;21.08;10.45;;;;;;;28.03;52.21;101078.03;4925677;29;20059;-82
2023/07/06 08:12:33;;;;;;;;;;;;;;;27.95;53.19;101078.41;4924881;29;20062;-82
2023/07/06 08:15:02;;;;;;;17.42;9.48;;;;;;;27.84;52.56;101056.38;4927264;28;20156;-83
2023/07/06 08:17:29;;;;;;;21.42;10.20;;;;;;;28.04;52.49;101074.25;4919437;28;20051;-83
2023/07/06 08:19:57;;;;;;;19.08;9.52;;;;;;;27.98;52.50;101067.00;4916576;29;20077;-83
2023/07/06 08:22:47;;;;;;;27.85;9.55;;;;;;;28.16;53.05;101074.19;4915479;29;20418;-83
2023/07/06 08:25:21;;;;;;;21.50;9.38;;;;;;;28.25;52.62;101067.28;4919214;28;20043;-83
2023/07/06 08:27:48;;;;;;;18.33;9.63;;;;;;;27.80;52.69;100995.13;4912701;28;20203;-82
2023/07/06 08:30:22;;;;;;;24.58;10.13;;;;;;;28.47;52.12;101054.66;4955499;28;20732;-82
2023/07/06 08:32:50;;;;;;;19.58;9.35;;;;;;;28.36;52.30;101062.88;4957511;28;20050;-81
2023/07/06 08:35:17;;;;;;;17.17;8.50;;;;;;;28.43;52.60;101079.94;4939720;28;20548;-81
2023/07/06 08:37:45;;;;;;;18.92;10.43;;;;;;;28.33;52.76;101086.84;4921535;28;20292;-83
2023/07/06 08:40:17;;;;;;;24.05;10.77;;;;;;;28.31;53.22;101086.25;4934461;28;20503;-82
2023/07/06 08:42:46;;;;;;;20.77;9.57;;;;;;;28.00;53.12;101037.56;4942300;28;20619;-83
2023/07/06 08:45:21;;;;;;;22.90;9.75;;;;;;;28.29;54.20;101087.56;4940186;28;20617;-82
2023/07/06 08:47:51;;;;;;;14.95;9.45;;;;;;;28.40;54.29;101091.31;4940828;28;20597;-83
2023/07/06 08:50:27;;;;;;;16.85;10.25;;;;;;;28.19;55.05;101060.91;4944706;28;20413;-83
2023/07/06 08:52:56;;;;;;;16.88;8.65;;;;;;;28.34;55.15;101104.03;4937427;28;20054;-83
2023/07/06 08:55:24;;;;;;;20.30;9.27;;;;;;;28.22;54.56;101093.16;4947581;28;20087;-83
2023/07/06 08:57:52;;;;;;;17.92;9.50;;;;;;;27.92;54.67;101058.72;4949523;28;20058;-82
2023/07/06 09:00:23;;;;;;;20.92;9.85;;;;;;;27.84;54.88;101041.88;4943332;28;20050;-82
2023/07/06 09:03:05;;;;;;;16.45;7.68;;;;;;;27.88;55.02;101040.34;4931826;28;20051;-83
2023/07/06 09:05:42;;;;;;;18.60;9.77;;;;;;;27.43;55.39;100968.19;4927605;29;20138;-83
2023/07/06 09:08:11;;;;;;;18.95;8.90;;;;;;;28.33;55.63;101108.69;4928239;29;20326;-83
2023/07/06 09:10:38;;;;;;;17.20;8.57;;;;;;;28.29;55.85;101104.78;4921019;29;20486;-83
2023/07/06 09:13:22;;;;;;;14.18;8.40;;;;;;;27.98;56.37;101073.28;4928202;28;20043;-82
2023/07/06 09:16:00;;;;;;;16.65;7.82;;;;;;;28.37;56.48;101136.31;4925410;28;20074;-82
2023/07/06 09:18:30;;;;;;;16.63;7.97;;;;;;;27.19;56.13;100928.41;4930269;29;20051;-82
2023/07/06 09:20:59;;;;;;;17.13;8.70;;;;;;;28.19;56.41;101073.72;4928167;28;20059;-82
2023/07/06 09:23:26;;;;;;;18.73;9.15;;;;;;;28.45;55.63;101126.91;4924593;29;20090;-81
2023/07/06 09:25:54;;;;;;;15.40;7.90;;;;;;;28.45;55.44;101137.81;4930695;28;20055;-81
2023/07/06 09:28:26;;;;;;;19.92;9.15;;;;;;;28.13;55.02;101084.53;4944381;28;20074;-83
2023/07/06 09:31:16;;;;;;;13.73;7.20;;;;;;;28.26;55.17;101121.63;4929440;29;20387;-83
2023/07/06 09:33:49;;;;;;;26.48;4.53;;;;;;;28.23;52.76;101151.31;4921167;29;20470;-83
2023/07/06 09:36:20;;;;;;;10.60;4.40;;;;;;;27.62;52.85;101085.28;4908320;29;20456;-83
2023/07/06 09:38:47;;;;;;;8.23;4.22;;;;;;;27.93;52.53;101168.66;4901263;29;20154;-83
2023/07/06 09:41:27;;;;;;;6.95;3.80;;;;;;;27.74;51.82;101167.09;4924663;29;20050;-83
2023/07/06 09:43:59;;;;;;;10.95;4.32;;;;;;;26.87;51.85;101078.56;4931641;28;20058;-83
2023/07/06 09:46:38;;;;;;;7.50;4.13;;;;;;;26.97;52.22;101111.50;4924434;29;20405;-83
2023/07/06 09:49:20;;;;;;;7.88;4.60;;;;;;;27.08;52.37;101148.84;4920676;29;20050;-83
2023/07/06 09:51:55;;;;;;;26.20;4.45;;;;;;;27.33;52.14;101187.91;4924719;29;20059;-84
2023/07/06 09:54:54;;;;;;;9.90;3.40;;;;;;;27.16;52.61;101155.00;4944106;28;20081;-83
2023/07/06 09:57:26;;;;;;;8.40;4.03;;;;;;;27.41;52.26;101173.97;4918967;29;20078;-83
2023/07/06 09:59:58;;;;;;;7.90;4.80;;;;;;;27.62;52.08;101173.41;4925439;28;20050;-83
2023/07/06 10:02:51;;;;;;;8.07;4.28;;;;;;;27.81;51.30;101171.38;4937405;28;20631;-83
2023/07/06 10:05:51;;;;;;;8.40;3.90;;;;;;;28.05;51.29;101177.69;4938818;28;20061;-83
2023/07/06 10:08:31;;;;;;;12.43;4.65;;;;;;;28.10;51.13;101172.31;4931915;28;20259;-83
2023/07/06 10:11:17;;;;;;;10.40;4.43;;;;;;;28.24;50.66;101172.91;4950327;28;20628;-81
2023/07/06 10:13:58;;;;;;;9.68;5.13;;;;;;;28.22;50.07;101171.50;4964267;28;20120;-83
2023/07/06 10:16:27;;;;;;;15.38;4.85;;;;;;;28.50;49.74;101184.41;4963001;28;20504;-83
2023/07/06 10:19:25;;;;;;;9.90;4.75;;;;;;;28.52;50.21;101182.25;4965978;28;20051;-83
2023/07/06 10:21:58;;;;;;;7.07;4.15;;;;;;;28.49;49.92;101123.47;4926278;28;20074;-84
2023/07/06 10:24:37;;;;;;;7.25;4.20;;;;;;;28.96;49.55;101171.66;4948428;28;20051;-83
2023/07/06 10:27:18;;;;;;;10.60;5.13;;;;;;;29.05;49.46;101191.19;4930389;28;20294;-84
2023/07/06 10:29:58;;;;;;;7.82;3.88;;;;;;;29.07;49.43;101195.38;4915419;28;20516;-83
2023/07/06 10:32:38;;;;;;;10.38;4.95;;;;;;;29.22;49.14;101196.72;4924242;28;20504;-82
2023/07/06 10:35:19;;;;;;;12.40;4.88;;;;;;;29.32;49.10;101180.50;4947701;28;20505;-82
2023/07/06 10:37:48;;;;;;;7.82;4.47;;;;;;;29.33;48.74;101154.81;4953530;28;20061;-83
2023/07/06 10:40:27;;;;;;;14.32;5.30;;;;;;;29.72;47.75;101202.25;4942827;28;20394;-83
2023/07/06 10:43:16;;;;;;;8.95;4.07;;;;;;;29.80;47.54;101209.22;4946253;28;20652;-82
2023/07/06 10:45:56;;;;;;;8.40;4.88;;;;;;;29.72;47.57;101213.19;4938403;28;20109;-83
2023/07/06 10:48:32;;;;;;;14.82;4.32;;;;;;;29.38;47.64;101152.16;4947151;28;20065;-82
2023/07/06 10:51:22;;;;;;;10.98;5.50;;;;;;;29.86;47.58;101227.38;4943899;28;20078;-83
2023/07/06 10:54:07;;;;;;;12.60;4.90;;;;;;;30.05;47.02;101219.69;4948486;28;20046;-83
2023/07/06 10:56:46;;;;;;;10.05;4.22;;;;;;;30.13;46.60;101223.94;4965393;28;20121;-83
2023/07/06 10:59:20;;;;;;;8.40;4.88;;;;;;;29.93;46.56;101224.44;4954712;28;20492;-82
2023/07/06 11:01:48;;;;;;;11.38;4.90;;;;;;;29.82;46.52;101234.41;4959803;28;20046;-82
2023/07/06 11:04:39;;;;;;;9.85;5.00;;;;;;;29.57;46.65;101237.56;4968985;28;20548;-82
2023/07/06 11:07:42;;;;;;;15.98;5.00;;;;;;;29.64;47.23;101234.63;4977053;28;20057;-82
2023/07/06 11:10:12;;;;;;;10.50;4.82;;;;;;;29.75;46.34;101207.22;4954904;28;20408;-83
2023/07/06 11:12:57;;;;;;;9.25;4.47;;;;;;;29.11;45.71;101114.53;4972375;28;20042;-84
2023/07/06 11:15:38;;;;;;;7.40;4.53;;;;;;;29.85;46.84;101255.00;4976718;28;20057;-82
2023/07/06 11:18:19;;;;;;;10.32;4.68;;;;;;;29.60;46.98;101215.97;4949659;28;20710;-83
2023/07/06 11:20:51;;;;;;;6.57;4.17;;;;;;;29.57;46.77;101189.13;4969006;28;20440;-82
2023/07/06 11:23:48;;;;;;;6.97;4.13;;;;;;;29.81;45.42;101205.41;4964366;28;20309;-83
2023/07/06 11:26:34;;;;;;;8.38;4.60;;;;;;;30.12;45.93;101249.66;4956560;28;20061;-83
2023/07/06 11:29:08;;;;;;;13.30;4.85;;;;;;;29.89;45.70;101251.50;4966051;28;20050;-82
2023/07/06 11:32:06;;;;;;;7.38;3.97;;;;;;;29.79;45.54;101262.28;4971234;28;20046;-82
2023/07/06 11:34:45;;;;;;;7.97;3.17;;;;;;;29.17;46.96;101219.34;4947222;28;20054;-83
2023/07/06 11:37:35;;;;;;;9.48;3.95;;;;;;;29.07;47.85;101271.91;4952229;28;20057;-83
2023/07/06 11:40:24;;;;;;;6.57;3.60;;;;;;;28.43;48.66;101211.00;4971702;28;20298;-83
2023/07/06 11:42:57;;;;;;;8.95;3.65;;;;;;;28.47;49.34;101239.50;4963692;28;20194;-84
2023/07/06 11:45:33;;;;;;;6.40;3.78;;;;;;;28.43;49.53;101249.22;4954330;28;20125;-81
2023/07/06 11:48:04;;;;;;;10.20;4.32;;;;;;;28.43;49.86;101230.09;4932173;28;20047;-81
2023/07/06 11:50:41;;;;;;;7.63;3.60;;;;;;;28.59;50.18;101210.25;4928294;28;20042;-81